Time;durP1;ratioP1;P1;durP2;ratioP2;P2;SDS_P1;SDS_P2;PMS_P1;PMS_P2;Temp;Humidity;BMP_temperature;BMP_pressure;BME280_temperature;BME280_humidity;BME280_pressure;Samples;Min_cycle;Max_cycle;Signal;HPM_P1;HPM_P2
2022/10/04 00:01:07;;;;;;;;;13.80;13.40;;;;;;;;5216045;28;8814;-73
2022/10/04 00:03:43;;;;;;;;;13.00;13.00;;;;;;;;5216315;28;8782;-73
2022/10/04 00:06:19;;;;;;;;;12.50;12.50;;;;;;;;5249293;28;8778;-74
2022/10/04 00:09:22;;;;;;;;;5.50;5.50;;;;;;;;5246251;28;8793;-74
2022/10/04 00:11:54;;;;;;;;;13.50;12.75;;;;;;;;5258256;28;8799;-73
2022/10/04 00:14:32;;;;;;;;;11.50;11.50;;;;;;;;5265841;28;8795;-73
2022/10/04 00:17:08;;;;;;;;;11.00;11.00;;;;;;;;5232509;28;8770;-74
2022/10/04 00:19:49;;;;;;;;;9.25;9.25;;;;;;;;5249318;28;8791;-74
2022/10/04 00:22:59;;;;;;;;;9.50;9.50;;;;;;;;5251859;28;8822;-74
2022/10/04 00:25:35;;;;;;;;;11.25;11.25;;;;;;;;5248460;28;8891;-74
2022/10/04 00:28:27;;;;;;;;;9.00;9.00;;;;;;;;5259734;28;9551;-74
2022/10/04 00:31:17;;;;;;;;;8.75;8.75;;;;;;;;5270182;28;8777;-75
2022/10/04 00:33:49;;;;;;;;;8.50;8.50;;;;;;;;5287680;28;8769;-75
2022/10/04 00:36:20;;;;;;;;;8.50;8.50;;;;;;;;5270119;28;9577;-75
2022/10/04 00:39:05;;;;;;;;;8.75;8.75;;;;;;;;5288165;28;8764;-75
2022/10/04 00:42:01;;;;;;;;;9.25;9.25;;;;;;;;5272791;28;8868;-75
2022/10/04 00:44:46;;;;;;;;;8.25;8.25;;;;;;;;5253886;28;8915;-77
2022/10/04 00:47:23;;;;;;;;;9.00;9.00;;;;;;;;5251729;28;8773;-77
2022/10/04 00:49:58;;;;;;;;;7.50;7.50;;;;;;;;5253254;28;8769;-75
2022/10/04 00:52:31;;;;;;;;;10.50;10.50;;;;;;;;5232021;28;8790;-76
2022/10/04 00:55:06;;;;;;;;;9.00;9.00;;;;;;;;5248627;28;8759;-75
2022/10/04 00:57:43;;;;;;;;;8.00;8.00;;;;;;;;5248905;28;8786;-75
2022/10/04 01:00:17;;;;;;;;;10.25;10.25;;;;;;;;5232340;28;8783;-76
2022/10/04 01:03:00;;;;;;;;;7.25;7.25;;;;;;;;5231681;28;8938;-75
2022/10/04 01:05:40;;;;;;;;;9.00;9.00;;;;;;;;5269887;28;8768;-75
2022/10/04 01:08:24;;;;;;;;;7.00;7.00;;;;;;;;5237571;28;8772;-75
2022/10/04 01:10:56;;;;;;;;;5.75;5.75;;;;;;;;5239913;28;8795;-75
2022/10/04 01:13:37;;;;;;;;;4.25;4.25;;;;;;;;5273839;28;8776;-75
2022/10/04 01:16:18;;;;;;;;;5.00;5.00;;;;;;;;5279895;28;9511;-75
2022/10/04 01:18:49;;;;;;;;;12.75;12.75;;;;;;;;5280043;28;8798;-76
2022/10/04 01:21:25;;;;;;;;;16.75;16.75;;;;;;;;5273794;28;8860;-75
2022/10/04 01:24:16;;;;;;;;;11.00;11.00;;;;;;;;5290317;28;8830;-76
2022/10/04 01:26:47;;;;;;;;;10.50;9.50;;;;;;;;5273268;28;8796;-77
2022/10/04 01:29:25;;;;;;;;;6.75;6.75;;;;;;;;5273910;28;9503;-77
2022/10/04 01:32:16;;;;;;;;;15.25;14.75;;;;;;;;5290438;28;8784;-77
2022/10/04 01:34:47;;;;;;;;;13.75;13.75;;;;;;;;5240191;28;8796;-77
2022/10/04 01:37:18;;;;;;;;;21.80;21.80;;;;;;;;5239909;28;8784;-76
2022/10/04 01:39:49;;;;;;;;;21.00;20.40;;;;;;;;5273505;28;8782;-77
2022/10/04 01:42:28;;;;;;;;;18.75;18.75;;;;;;;;5273222;28;9594;-76
2022/10/04 01:44:59;;;;;;;;;16.50;15.75;;;;;;;;5238867;28;8838;-75
2022/10/04 01:47:48;;;;;;;;;17.50;17.50;;;;;;;;5256044;28;8808;-75
2022/10/04 01:50:27;;;;;;;;;15.00;13.75;;;;;;;;5255821;28;9429;-75
2022/10/04 01:53:05;;;;;;;;;11.00;11.00;;;;;;;;5239619;28;8769;-75
2022/10/04 01:55:40;;;;;;;;;15.25;15.25;;;;;;;;5256090;28;8773;-75
2022/10/04 01:58:29;;;;;;;;;20.00;20.00;;;;;;;;5255986;28;8777;-76
2022/10/04 02:01:06;;;;;;;;;21.75;21.00;;;;;;;;5272536;28;8800;-76
2022/10/04 02:03:59;;;;;;;;;8.25;8.25;;;;;;;;5258290;28;8784;-76
2022/10/04 02:06:36;;;;;;;;;7.00;7.00;;;;;;;;5272463;28;8796;-76
2022/10/04 02:09:17;;;;;;;;;10.75;10.75;;;;;;;;5272733;28;8818;-76
2022/10/04 02:11:52;;;;;;;;;14.50;13.75;;;;;;;;5251146;28;8782;-76
2022/10/04 02:14:26;;;;;;;;;10.00;10.00;;;;;;;;5251717;28;8785;-76
2022/10/04 02:17:00;;;;;;;;;7.25;7.25;;;;;;;;5234881;28;8818;-74
2022/10/04 02:19:35;;;;;;;;;10.25;10.25;;;;;;;;5251170;28;8822;-74
2022/10/04 02:22:08;;;;;;;;;8.00;8.00;;;;;;;;5251704;28;8814;-77
2022/10/04 02:24:41;;;;;;;;;8.00;7.25;;;;;;;;5219174;28;8994;-76
2022/10/04 02:27:12;;;;;;;;;8.75;8.75;;;;;;;;5271666;28;8830;-73
2022/10/04 02:29:44;;;;;;;;;8.50;8.00;;;;;;;;5271956;28;8789;-73
2022/10/04 02:35:05;;;;;;;;;11.75;11.50;;;;;;;;5272188;28;8769;-74
2022/10/04 02:37:38;;;;;;;;;11.50;11.50;;;;;;;;5238666;28;8780;-74
2022/10/04 02:40:16;;;;;;;;;15.25;15.00;;;;;;;;5272043;28;9511;-73
2022/10/04 02:42:59;;;;;;;;;9.50;9.50;;;;;;;;5271048;28;9758;-73
2022/10/04 02:45:49;;;;;;;;;8.00;8.00;;;;;;;;5271810;28;8804;-74
2022/10/04 02:48:55;;;;;;;;;9.00;9.00;;;;;;;;5255232;28;8772;-75
2022/10/04 02:51:36;;;;;;;;;9.25;9.25;;;;;;;;5183684;28;8845;-74
2022/10/04 02:54:26;;;;;;;;;13.75;12.00;;;;;;;;5225810;28;8897;-75
2022/10/04 02:56:58;;;;;;;;;20.80;20.60;;;;;;;;5250665;28;8859;-75
2022/10/04 02:59:31;;;;;;;;;24.80;23.80;;;;;;;;5267067;28;8783;-75
2022/10/04 03:02:19;;;;;;;;;23.80;22.40;;;;;;;;5250079;28;9558;-75
2022/10/04 03:04:52;;;;;;;;;20.00;19.20;;;;;;;;5252726;28;8792;-74
2022/10/04 03:07:24;;;;;;;;;18.20;18.20;;;;;;;;5244751;28;8795;-74
2022/10/04 03:09:55;;;;;;;;;21.00;21.00;;;;;;;;5241150;28;8843;-72
2022/10/04 03:12:49;;;;;;;;;13.40;13.40;;;;;;;;5254163;28;8868;-72
2022/10/04 03:15:21;;;;;;;;;12.25;11.25;;;;;;;;5258962;28;9663;-72
2022/10/04 03:17:52;;;;;;;;;11.25;11.25;;;;;;;;5233423;28;8765;-72
2022/10/04 03:20:24;;;;;;;;;14.50;14.50;;;;;;;;5227303;28;8810;-72
2022/10/04 03:22:56;;;;;;;;;14.50;14.50;;;;;;;;5256531;28;8844;-74
2022/10/04 03:25:29;;;;;;;;;27.00;24.20;;;;;;;;5236623;28;8834;-76
2022/10/04 03:28:01;;;;;;;;;19.60;19.60;;;;;;;;5268046;28;9538;-76
2022/10/04 03:30:33;;;;;;;;;16.60;14.20;;;;;;;;5231681;28;9664;-76
2022/10/04 03:33:05;;;;;;;;;18.80;18.80;;;;;;;;5248890;28;8779;-75
2022/10/04 03:35:39;;;;;;;;;17.00;16.80;;;;;;;;5230243;28;9628;-76
2022/10/04 03:38:33;;;;;;;;;17.25;17.25;;;;;;;;5249466;28;9520;-77
2022/10/04 03:41:24;;;;;;;;;12.25;11.75;;;;;;;;5271691;28;8998;-75
2022/10/04 03:43:56;;;;;;;;;11.75;11.75;;;;;;;;5270325;28;8823;-75
2022/10/04 03:46:27;;;;;;;;;13.25;13.25;;;;;;;;5288189;28;8796;-75
2022/10/04 03:49:22;;;;;;;;;11.50;11.50;;;;;;;;5272801;28;8777;-75
2022/10/04 03:51:53;;;;;;;;;10.50;10.50;;;;;;;;5270681;28;8864;-75
2022/10/04 03:54:26;;;;;;;;;11.50;11.50;;;;;;;;5236627;28;8780;-74
2022/10/04 03:56:59;;;;;;;;;12.75;12.75;;;;;;;;5232432;28;9513;-74
2022/10/04 03:59:49;;;;;;;;;22.80;22.80;;;;;;;;5248491;28;8778;-72
2022/10/04 04:02:29;;;;;;;;;13.00;13.00;;;;;;;;5215933;28;9541;-73
2022/10/04 04:05:14;;;;;;;;;10.50;10.50;;;;;;;;5261749;28;8867;-72
2022/10/04 04:07:50;;;;;;;;;16.00;16.00;;;;;;;;5236853;28;8903;-74
2022/10/04 04:10:24;;;;;;;;;9.50;9.50;;;;;;;;5252933;28;8841;-73
2022/10/04 04:13:02;;;;;;;;;39.60;33.80;;;;;;;;5270171;28;8796;-73
2022/10/04 04:15:33;;;;;;;;;7.00;7.00;;;;;;;;5236941;28;8966;-73
2022/10/04 04:18:25;;;;;;;;;7.00;7.00;;;;;;;;5250407;28;8833;-75
2022/10/04 04:20:58;;;;;;;;;7.25;7.25;;;;;;;;5266773;28;8817;-78
2022/10/04 04:24:07;;;;;;;;;5.00;5.00;;;;;;;;5234641;28;8968;-78
2022/10/04 04:26:41;;;;;;;;;7.50;7.25;;;;;;;;5222881;28;8792;-77
2022/10/04 04:29:12;;;;;;;;;6.25;6.25;;;;;;;;5236563;28;8772;-77
2022/10/04 04:32:07;;;;;;;;;14.50;14.25;;;;;;;;5269557;28;8830;-77
2022/10/04 04:34:59;;;;;;;;;23.50;21.25;;;;;;;;5255230;28;8830;-78
2022/10/04 04:37:30;;;;;;;;;43.20;38.00;;;;;;;;5260171;28;8755;-77
2022/10/04 04:40:17;;;;;;;;;29.80;29.60;;;;;;;;5255066;28;8821;-79
2022/10/04 04:42:49;;;;;;;;;14.50;13.25;;;;;;;;5245919;28;8820;-79
2022/10/04 04:45:38;;;;;;;;;16.00;16.00;;;;;;;;5256907;28;8909;-79
2022/10/04 04:48:13;;;;;;;;;15.50;13.00;;;;;;;;5246116;28;8825;-78
2022/10/04 04:50:52;;;;;;;;;9.25;9.25;;;;;;;;5236186;28;8795;-76
2022/10/04 04:53:27;;;;;;;;;12.75;12.75;;;;;;;;5236222;28;8843;-78
2022/10/04 04:56:02;;;;;;;;;8.50;8.50;;;;;;;;5218324;28;8849;-74
2022/10/04 04:58:41;;;;;;;;;11.00;11.00;;;;;;;;5218417;28;8809;-77
2022/10/04 05:01:19;;;;;;;;;20.50;20.50;;;;;;;;5249718;28;8844;-78
2022/10/04 05:04:05;;;;;;;;;30.20;29.80;;;;;;;;5253367;28;8922;-76
2022/10/04 05:06:37;;;;;;;;;32.20;31.40;;;;;;;;5270111;28;8873;-77
2022/10/04 05:09:27;;;;;;;;;12.50;12.50;;;;;;;;5270372;28;8804;-77
2022/10/04 05:12:02;;;;;;;;;12.25;12.25;;;;;;;;5270811;28;8795;-78
2022/10/04 05:14:37;;;;;;;;;11.00;11.00;;;;;;;;5254969;28;8874;-80
2022/10/04 05:17:31;;;;;;;;;9.25;9.25;;;;;;;;5262188;28;9510;-77
2022/10/04 05:20:03;;;;;;;;;8.00;8.00;;;;;;;;5231991;28;8888;-76
2022/10/04 05:22:46;;;;;;;;;12.00;12.00;;;;;;;;5255276;28;9530;-74
2022/10/04 05:25:29;;;;;;;;;12.00;12.00;;;;;;;;5256202;28;8823;-77
2022/10/04 05:28:01;;;;;;;;;36.80;34.00;;;;;;;;5272309;28;8859;-76
2022/10/04 05:30:32;;;;;;;;;15.00;15.00;;;;;;;;5273100;28;8792;-76
2022/10/04 05:33:07;;;;;;;;;6.00;6.00;;;;;;;;5256129;28;8800;-76
2022/10/04 05:35:50;;;;;;;;;3.00;3.00;;;;;;;;5273231;28;8777;-77
2022/10/04 05:38:30;;;;;;;;;8.75;8.75;;;;;;;;5273377;28;8931;-76
2022/10/04 05:41:06;;;;;;;;;7.75;7.75;;;;;;;;5273173;28;8830;-76
2022/10/04 05:43:44;;;;;;;;;3.50;3.50;;;;;;;;5256368;28;8910;-77
2022/10/04 05:46:25;;;;;;;;;6.75;6.75;;;;;;;;5255961;28;8807;-79
2022/10/04 05:49:05;;;;;;;;;7.00;7.00;;;;;;;;5255980;28;8785;-76
2022/10/04 05:51:49;;;;;;;;;6.00;6.00;;;;;;;;5256192;28;8784;-77
2022/10/04 05:54:22;;;;;;;;;17.25;16.75;;;;;;;;5272121;28;8772;-77
2022/10/04 05:57:14;;;;;;;;;7.00;7.00;;;;;;;;5258402;28;8872;-77
2022/10/04 05:59:55;;;;;;;;;2.75;2.75;;;;;;;;5239369;28;8811;-77
2022/10/04 06:02:44;;;;;;;;;3.00;3.00;;;;;;;;5272659;28;9527;-77
2022/10/04 06:05:25;;;;;;;;;9.50;9.25;;;;;;;;5239504;28;9512;-77
2022/10/04 06:08:17;;;;;;;;;2.25;2.25;;;;;;;;5272858;28;8788;-77
2022/10/04 06:10:56;;;;;;;;;8.25;7.75;;;;;;;;5288907;28;8926;-77
2022/10/04 06:13:39;;;;;;;;;7.00;7.00;;;;;;;;5272468;28;8777;-77
2022/10/04 06:16:38;;;;;;;;;12.00;12.00;;;;;;;;5290051;28;9494;-77
2022/10/04 06:19:16;;;;;;;;;20.25;20.25;;;;;;;;5275524;28;8918;-78
2022/10/04 06:22:02;;;;;;;;;10.50;10.00;;;;;;;;5260297;28;8823;-77
2022/10/04 06:24:36;;;;;;;;;11.50;11.25;;;;;;;;5241337;28;8784;-77
2022/10/04 06:27:13;;;;;;;;;13.00;13.00;;;;;;;;5256034;28;8808;-77
2022/10/04 06:30:12;;;;;;;;;7.00;7.00;;;;;;;;5257519;28;8769;-77
2022/10/04 06:32:54;;;;;;;;;8.00;8.00;;;;;;;;5272170;28;9671;-77
2022/10/04 06:35:57;;;;;;;;;13.00;12.00;;;;;;;;5275045;28;8780;-77
2022/10/04 06:38:43;;;;;;;;;13.50;13.50;;;;;;;;5272087;28;8891;-77
2022/10/04 06:41:25;;;;;;;;;17.00;16.00;;;;;;;;5272015;28;8823;-78
2022/10/04 06:44:36;;;;;;;;;32.20;31.40;;;;;;;;5274490;28;9506;-78
2022/10/04 06:47:31;;;;;;;;;10.00;10.00;;;;;;;;5272060;28;9511;-78
2022/10/04 06:50:14;;;;;;;;;6.75;6.50;;;;;;;;5254877;28;8811;-77
2022/10/04 06:52:53;;;;;;;;;9.00;8.00;;;;;;;;5271514;28;8893;-77
2022/10/04 06:55:42;;;;;;;;;6.50;6.50;;;;;;;;5238545;28;8768;-77
2022/10/04 06:58:26;;;;;;;;;9.50;9.50;;;;;;;;5271591;28;8780;-77
2022/10/04 07:01:03;;;;;;;;;10.00;10.00;;;;;;;;5238061;28;8854;-77
2022/10/04 07:03:39;;;;;;;;;9.00;9.00;;;;;;;;5238337;28;8781;-77
2022/10/04 07:06:11;;;;;;;;;8.75;8.75;;;;;;;;5237276;28;8898;-77
2022/10/04 07:09:04;;;;;;;;;10.00;10.00;;;;;;;;5288209;28;8800;-76
2022/10/04 07:11:41;;;;;;;;;9.50;9.50;;;;;;;;5271215;28;8872;-77
2022/10/04 07:14:13;;;;;;;;;6.00;6.00;;;;;;;;5237720;28;8769;-77
2022/10/04 07:16:53;;;;;;;;;9.00;9.00;;;;;;;;5237689;28;8814;-77
2022/10/04 07:19:35;;;;;;;;;10.50;10.50;;;;;;;;5254333;28;8907;-78
2022/10/04 07:22:06;;;;;;;;;11.00;11.00;;;;;;;;5254396;28;8835;-77
2022/10/04 07:24:38;;;;;;;;;7.50;7.50;;;;;;;;5271044;28;8764;-77
2022/10/04 07:27:12;;;;;;;;;6.00;6.00;;;;;;;;5249773;28;8788;-77
2022/10/04 07:29:47;;;;;;;;;7.00;7.00;;;;;;;;5233363;28;8869;-77
2022/10/04 07:32:25;;;;;;;;;6.25;6.25;;;;;;;;5266645;28;8801;-78
2022/10/04 07:35:03;;;;;;;;;9.50;9.50;;;;;;;;5266847;28;8784;-77
2022/10/04 07:37:52;;;;;;;;;10.25;10.25;;;;;;;;5266942;28;8792;-77
2022/10/04 07:40:35;;;;;;;;;13.00;11.50;;;;;;;;5266807;28;8801;-77
2022/10/04 07:43:13;;;;;;;;;12.00;12.00;;;;;;;;5266471;28;8816;-77
2022/10/04 07:45:45;;;;;;;;;14.50;14.00;;;;;;;;5266781;28;8803;-78
2022/10/04 07:48:22;;;;;;;;;13.25;13.25;;;;;;;;5266410;28;8792;-78
2022/10/04 07:50:59;;;;;;;;;18.25;18.00;;;;;;;;5266196;28;9545;-78
2022/10/04 07:53:39;;;;;;;;;24.50;24.50;;;;;;;;5266837;28;9546;-78
2022/10/04 07:56:16;;;;;;;;;16.75;16.75;;;;;;;;5266515;28;9712;-78
2022/10/04 07:58:47;;;;;;;;;14.25;14.25;;;;;;;;5233643;28;8788;-77
2022/10/04 08:01:24;;;;;;;;;12.33;12.33;;;;;;;;5280773;28;8792;-77
2022/10/04 08:03:57;;;;;;;;;12.00;12.00;;;;;;;;5278649;28;10236;-78
2022/10/04 08:06:55;;;;;;;;;11.00;11.00;;;;;;;;5267041;28;8784;-78
2022/10/04 08:09:41;;;;;;;;;9.00;9.00;;;;;;;;5266470;28;8772;-78
2022/10/04 08:12:12;;;;;;;;;9.50;9.50;;;;;;;;5249770;28;8784;-78
2022/10/04 08:14:51;;;;;;;;;8.75;8.75;;;;;;;;5249266;28;8773;-77
2022/10/04 08:17:40;;;;;;;;;8.50;8.50;;;;;;;;5249435;28;8800;-77
2022/10/04 08:20:30;;;;;;;;;17.50;16.50;;;;;;;;5266359;28;8777;-77
2022/10/04 08:23:19;;;;;;;;;13.33;13.33;;;;;;;;5265979;28;8800;-77
2022/10/04 08:26:17;;;;;;;;;17.75;17.75;;;;;;;;5268644;28;8804;-77
2022/10/04 08:32:37;;;;;;;;;11.75;11.75;;;;;;;;5265930;28;9549;-78
2022/10/04 08:35:15;;;;;;;;;9.00;9.00;;;;;;;;5243251;28;8769;-78
2022/10/04 08:38:05;;;;;;;;;8.25;8.25;;;;;;;;5249029;28;8785;-78
2022/10/04 08:40:51;;;;;;;;;9.50;9.50;;;;;;;;5266833;28;8803;-78
2022/10/04 08:43:28;;;;;;;;;7.75;7.75;;;;;;;;5266223;28;8792;-78
2022/10/04 08:46:11;;;;;;;;;12.75;12.75;;;;;;;;5266005;28;8780;-78
2022/10/04 08:48:45;;;;;;;;;6.25;6.25;;;;;;;;5266201;28;8831;-78
2022/10/04 08:51:52;;;;;;;;;5.50;5.50;;;;;;;;5266865;28;8773;-79
2022/10/04 08:54:30;;;;;;;;;7.50;7.50;;;;;;;;5249114;28;8776;-79
2022/10/04 08:57:01;;;;;;;;;11.25;11.25;;;;;;;;5265956;28;8776;-78
2022/10/04 08:59:35;;;;;;;;;15.00;15.00;;;;;;;;5265655;28;8815;-78
2022/10/04 09:02:12;;;;;;;;;15.00;15.00;;;;;;;;5248392;28;11480;-78
2022/10/04 09:04:46;;;;;;;;;12.75;12.75;;;;;;;;5248887;28;8788;-79
2022/10/04 09:07:37;;;;;;;;;20.00;20.00;;;;;;;;5266863;28;8788;-78
2022/10/04 09:10:14;;;;;;;;;45.80;39.00;;;;;;;;5265365;28;8853;-79
2022/10/04 09:13:04;;;;;;;;;35.60;32.80;;;;;;;;5266112;28;8789;-79
2022/10/04 09:15:38;;;;;;;;;19.00;19.00;;;;;;;;5265632;28;8815;-78
2022/10/04 09:18:12;;;;;;;;;14.25;14.25;;;;;;;;5265492;28;9562;-78
2022/10/04 09:20:54;;;;;;;;;10.25;10.25;;;;;;;;5248224;28;8780;-78
2022/10/04 09:23:32;;;;;;;;;12.50;12.00;;;;;;;;5248865;28;8788;-78
2022/10/04 09:26:12;;;;;;;;;9.25;9.25;;;;;;;;5265423;28;8797;-79
2022/10/04 09:28:46;;;;;;;;;8.00;8.00;;;;;;;;5265944;28;8780;-79
2022/10/04 09:31:46;;;;;;;;;4.00;4.00;;;;;;;;5271729;28;8814;-79
2022/10/04 09:34:45;;;;;;;;;7.50;7.50;;;;;;;;5252317;28;8807;-78
2022/10/04 09:37:16;;;;;;;;;8.00;8.00;;;;;;;;5269011;28;8799;-79
2022/10/04 09:39:59;;;;;;;;;7.67;7.00;;;;;;;;5252639;28;8895;-78
2022/10/04 09:42:49;;;;;;;;;6.00;6.00;;;;;;;;5268834;28;8804;-79
2022/10/04 09:45:24;;;;;;;;;6.00;6.00;;;;;;;;5269029;28;8799;-78
2022/10/04 09:48:14;;;;;;;;;6.00;6.00;;;;;;;;5252723;28;8923;-78
2022/10/04 09:50:48;;;;;;;;;4.00;4.00;;;;;;;;5269015;28;8845;-78
2022/10/04 09:53:19;;;;;;;;;7.00;7.00;;;;;;;;5268861;28;8792;-78
2022/10/04 09:56:00;;;;;;;;;3.75;3.75;;;;;;;;5251759;28;8792;-78
2022/10/04 09:58:45;;;;;;;;;3.25;3.25;;;;;;;;5268802;28;8773;-78
2022/10/04 10:01:22;;;;;;;;;9.50;8.50;;;;;;;;5268530;28;8793;-78
2022/10/04 10:04:18;;;;;;;;;6.75;5.75;;;;;;;;5251829;28;8807;-78
2022/10/04 10:07:04;;;;;;;;;7.00;7.00;;;;;;;;5251938;28;8773;-78
2022/10/04 10:15:58;;;;;;;;;7.50;7.50;;;;;;;;5268355;28;8911;-78
2022/10/04 10:18:38;;;;;;;;;10.75;10.75;;;;;;;;5268267;28;8781;-78
2022/10/04 10:21:18;;;;;;;;;9.25;9.25;;;;;;;;5268070;28;8804;-78
2022/10/04 10:23:58;;;;;;;;;6.00;6.00;;;;;;;;5268335;28;8789;-78
2022/10/04 10:26:52;;;;;;;;;11.00;11.00;;;;;;;;5270275;28;8818;-78
2022/10/04 10:29:30;;;;;;;;;9.50;9.50;;;;;;;;5234408;28;8784;-77
2022/10/04 10:32:20;;;;;;;;;8.50;8.25;;;;;;;;5268881;28;8772;-76
2022/10/04 10:35:09;;;;;;;;;7.75;7.75;;;;;;;;5268868;28;8899;-78
2022/10/04 10:38:13;;;;;;;;;8.00;8.00;;;;;;;;5251055;28;8787;-78
2022/10/04 10:40:44;;;;;;;;;9.00;9.00;;;;;;;;5230090;28;8769;-78
2022/10/04 10:43:34;;;;;;;;;10.75;10.50;;;;;;;;5250649;28;8788;-78
2022/10/04 10:46:30;;;;;;;;;12.00;12.00;;;;;;;;5268268;28;8897;-77
2022/10/04 10:49:12;;;;;;;;;14.75;14.75;;;;;;;;5252112;28;8788;-77
2022/10/04 10:52:04;;;;;;;;;20.00;20.00;;;;;;;;5250890;28;8877;-77
2022/10/04 10:54:45;;;;;;;;;26.25;25.50;;;;;;;;5267521;28;8779;-77
2022/10/04 10:57:54;;;;;;;;;17.50;17.50;;;;;;;;5252570;28;9518;-77
2022/10/04 11:00:37;;;;;;;;;13.25;13.00;;;;;;;;5225040;28;8769;-78
2022/10/04 11:03:16;;;;;;;;;7.75;7.75;;;;;;;;5224606;28;8796;-78
2022/10/04 11:06:06;;;;;;;;;8.00;8.00;;;;;;;;5247577;28;8910;-78
2022/10/04 11:08:55;;;;;;;;;6.75;6.75;;;;;;;;5265401;28;9533;-78
2022/10/04 11:11:30;;;;;;;;;78.40;71.00;;;;;;;;5260337;28;8804;-76
2022/10/04 11:14:19;;;;;;;;;17.50;16.50;;;;;;;;5263679;28;8800;-76
2022/10/04 11:17:09;;;;;;;;;19.00;19.00;;;;;;;;5266883;28;8782;-75
2022/10/04 11:20:01;;;;;;;;;19.50;19.50;;;;;;;;5246006;28;8790;-76
2022/10/04 11:22:34;;;;;;;;;19.50;19.25;;;;;;;;5241131;28;8857;-78
2022/10/04 11:25:28;;;;;;;;;21.00;20.25;;;;;;;;5243594;28;8779;-77
2022/10/04 11:28:06;;;;;;;;;30.00;29.40;;;;;;;;5228805;28;8811;-76
2022/10/04 11:30:50;;;;;;;;;15.50;15.50;;;;;;;;5228838;28;8794;-79
2022/10/04 11:33:21;;;;;;;;;11.50;11.00;;;;;;;;5239090;28;8974;-74
2022/10/04 11:36:01;;;;;;;;;9.33;9.33;;;;;;;;5263616;28;8928;-76
2022/10/04 11:39:09;;;;;;;;;23.50;23.25;;;;;;;;5247544;28;9781;-78
2022/10/04 11:41:43;;;;;;;;;8.50;8.50;;;;;;;;5260376;28;8843;-78
2022/10/04 11:44:28;;;;;;;;;6.00;6.00;;;;;;;;5242925;28;8870;-77
2022/10/04 11:46:59;;;;;;;;;6.00;6.00;;;;;;;;5243737;28;8787;-77
2022/10/04 11:49:34;;;;;;;;;9.25;9.25;;;;;;;;5227116;28;8977;-75
2022/10/04 11:52:15;;;;;;;;;9.50;9.50;;;;;;;;5249873;28;8812;-77
2022/10/04 11:55:05;;;;;;;;;13.00;13.00;;;;;;;;5259995;28;8791;-76
2022/10/04 11:57:56;;;;;;;;;13.75;13.75;;;;;;;;5243657;28;8805;-77
2022/10/04 12:00:46;;;;;;;;;14.50;14.50;;;;;;;;5209504;28;8814;-78
2022/10/04 12:03:36;;;;;;;;;10.50;10.50;;;;;;;;5243277;28;8888;-78
2022/10/04 12:06:14;;;;;;;;;9.75;9.75;;;;;;;;5264340;28;8796;-78
2022/10/04 12:08:48;;;;;;;;;7.75;7.75;;;;;;;;5263359;28;8810;-81
2022/10/04 12:11:25;;;;;;;;;9.00;8.00;;;;;;;;5247139;28;8839;-79
2022/10/04 12:14:25;;;;;;;;;12.00;12.00;;;;;;;;5264456;28;8764;-80
2022/10/04 12:17:35;;;;;;;;;14.50;14.50;;;;;;;;5249343;28;8807;-80
2022/10/04 12:20:27;;;;;;;;;16.00;16.00;;;;;;;;5241399;28;8810;-79
2022/10/04 12:23:10;;;;;;;;;16.25;16.25;;;;;;;;5225135;28;8818;-80
2022/10/04 12:25:45;;;;;;;;;14.00;14.00;;;;;;;;5254516;28;8788;-79
2022/10/04 12:28:25;;;;;;;;;18.25;18.25;;;;;;;;5268027;28;8776;-82
2022/10/04 12:30:59;;;;;;;;;15.00;15.00;;;;;;;;5233462;28;9529;-78
2022/10/04 12:33:58;;;;;;;;;23.40;23.40;;;;;;;;5283560;28;8821;-80
2022/10/04 12:36:48;;;;;;;;;8.50;8.50;;;;;;;;5251190;28;8784;-79
2022/10/04 12:39:37;;;;;;;;;6.50;6.50;;;;;;;;5268261;28;8769;-78
2022/10/04 12:42:20;;;;;;;;;8.50;8.50;;;;;;;;5245328;28;8935;-81
2022/10/04 12:45:00;;;;;;;;;10.00;10.00;;;;;;;;5249766;28;8783;-78
2022/10/04 12:47:47;;;;;;;;;9.50;9.25;;;;;;;;5267308;28;8781;-81
2022/10/04 12:50:39;;;;;;;;;25.50;24.50;;;;;;;;5253831;28;8788;-79
2022/10/04 12:53:17;;;;;;;;;37.60;33.80;;;;;;;;5236104;28;8776;-77
2022/10/04 12:55:48;;;;;;;;;33.60;30.80;;;;;;;;5268858;28;8903;-78
2022/10/04 12:58:25;;;;;;;;;31.20;30.80;;;;;;;;5234375;28;8937;-78
2022/10/04 13:01:25;;;;;;;;;29.60;29.60;;;;;;;;5250619;28;8784;-77
2022/10/04 13:03:59;;;;;;;;;26.00;25.00;;;;;;;;5231167;28;8787;-78
2022/10/04 13:06:49;;;;;;;;;31.00;30.80;;;;;;;;5234828;28;8778;-80
2022/10/04 13:09:35;;;;;;;;;37.00;34.00;;;;;;;;5250911;28;8778;-80
2022/10/04 13:12:18;;;;;;;;;51.60;41.80;;;;;;;;5267523;28;8767;-79
2022/10/04 13:14:56;;;;;;;;;50.80;43.00;;;;;;;;5250709;28;8813;-79
2022/10/04 13:17:42;;;;;;;;;26.20;25.00;;;;;;;;5245229;28;8791;-78
2022/10/04 13:20:24;;;;;;;;;25.50;21.50;;;;;;;;5265479;28;8773;-78
2022/10/04 13:22:58;;;;;;;;;16.00;15.25;;;;;;;;5271611;28;8828;-79
2022/10/04 13:25:36;;;;;;;;;21.50;20.75;;;;;;;;5271114;28;9661;-77
2022/10/04 13:28:10;;;;;;;;;21.75;21.25;;;;;;;;5271672;28;8792;-79
2022/10/04 13:30:49;;;;;;;;;23.75;23.50;;;;;;;;5289474;28;8810;-78
2022/10/04 13:33:23;;;;;;;;;21.00;20.50;;;;;;;;5289634;28;9543;-80
2022/10/04 13:35:54;;;;;;;;;15.00;15.00;;;;;;;;5249780;28;8825;-78
2022/10/04 13:38:47;;;;;;;;;10.00;10.00;;;;;;;;5252139;28;8782;-80
2022/10/04 13:41:55;;;;;;;;;16.50;16.50;;;;;;;;5274200;28;8823;-80
2022/10/04 13:44:32;;;;;;;;;13.25;13.25;;;;;;;;5271213;28;8792;-78
2022/10/04 13:47:05;;;;;;;;;12.50;12.50;;;;;;;;5237340;28;9581;-80
2022/10/04 13:49:55;;;;;;;;;15.25;15.25;;;;;;;;5237543;28;8788;-80
2022/10/04 13:58:29;;;;;;;;;33.00;32.00;;;;;;;;5285046;28;8931;-76
2022/10/04 14:01:30;;;;;;;;;22.25;21.00;;;;;;;;5231407;28;9499;-75
2022/10/04 14:04:24;;;;;;;;;11.75;11.75;;;;;;;;5244120;28;9514;-75
2022/10/04 14:07:29;;;;;;;;;10.50;10.50;;;;;;;;5174819;28;8953;-75
2022/10/04 14:10:07;;;;;;;;;9.00;9.00;;;;;;;;5240047;28;9665;-76
2022/10/04 14:12:58;;;;;;;;;10.00;10.00;;;;;;;;5276774;28;8786;-76
2022/10/04 14:15:54;;;;;;;;;29.20;29.20;;;;;;;;5252074;28;8827;-79
2022/10/04 14:18:26;;;;;;;;;18.25;17.50;;;;;;;;5236696;28;9541;-78
2022/10/04 14:21:15;;;;;;;;;7.50;7.50;;;;;;;;5270185;28;8793;-76
2022/10/04 14:23:53;;;;;;;;;29.20;28.40;;;;;;;;5269795;28;8856;-79
2022/10/04 14:26:52;;;;;;;;;17.25;17.00;;;;;;;;5269099;28;8800;-76
2022/10/04 14:29:39;;;;;;;;;14.50;14.50;;;;;;;;5241661;28;8818;-78
2022/10/04 14:32:19;;;;;;;;;10.25;9.50;;;;;;;;5246825;28;8790;-79
2022/10/04 14:34:56;;;;;;;;;9.00;9.00;;;;;;;;5264307;28;8792;-78
2022/10/04 14:37:45;;;;;;;;;9.25;9.25;;;;;;;;5269787;28;8779;-77
2022/10/04 14:40:31;;;;;;;;;10.25;10.25;;;;;;;;5265873;28;8775;-77
2022/10/04 14:43:16;;;;;;;;;14.50;13.75;;;;;;;;5251003;28;8825;-78
2022/10/04 14:45:50;;;;;;;;;15.25;15.25;;;;;;;;5259273;28;8802;-75
2022/10/04 14:48:24;;;;;;;;;12.25;11.75;;;;;;;;5262939;28;8790;-77
2022/10/04 14:51:14;;;;;;;;;11.00;11.00;;;;;;;;5254049;28;8774;-78
2022/10/04 14:54:24;;;;;;;;;8.00;8.00;;;;;;;;5251872;28;8790;-75
2022/10/04 14:57:12;;;;;;;;;8.75;8.50;;;;;;;;5232419;28;8805;-75
2022/10/04 15:00:16;;;;;;;;;10.25;10.25;;;;;;;;5250507;28;8815;-76
2022/10/04 15:03:12;;;;;;;;;14.50;14.50;;;;;;;;5252746;28;8823;-75
2022/10/04 15:05:53;;;;;;;;;11.50;11.50;;;;;;;;5252157;28;8800;-74
2022/10/04 15:08:24;;;;;;;;;7.50;7.50;;;;;;;;5252648;28;8776;-76
2022/10/04 15:11:30;;;;;;;;;12.25;12.25;;;;;;;;5254878;28;8905;-76
2022/10/04 15:14:18;;;;;;;;;6.00;6.00;;;;;;;;5269339;28;8935;-75
2022/10/04 15:16:57;;;;;;;;;8.00;8.00;;;;;;;;5269483;28;8806;-77
2022/10/04 15:19:52;;;;;;;;;10.00;10.00;;;;;;;;5260595;28;8777;-77
2022/10/04 15:22:28;;;;;;;;;14.50;14.50;;;;;;;;5260197;28;8890;-75
2022/10/04 15:24:59;;;;;;;;;10.25;10.25;;;;;;;;5269260;28;8780;-74
2022/10/04 15:27:51;;;;;;;;;9.75;9.50;;;;;;;;5286403;28;9632;-74
2022/10/04 15:30:29;;;;;;;;;4.00;4.00;;;;;;;;5252245;28;8784;-74
2022/10/04 15:33:18;;;;;;;;;8.25;8.25;;;;;;;;5241380;28;9527;-76
2022/10/04 15:36:08;;;;;;;;;7.00;7.00;;;;;;;;5252168;28;8888;-76
2022/10/04 15:38:52;;;;;;;;;4.50;4.50;;;;;;;;5231294;28;9539;-76
2022/10/04 15:41:29;;;;;;;;;4.75;4.75;;;;;;;;5231157;28;8814;-75
2022/10/04 15:44:10;;;;;;;;;4.50;4.50;;;;;;;;5247729;28;8798;-75
2022/10/04 15:46:41;;;;;;;;;7.00;7.00;;;;;;;;5231334;28;8802;-75
2022/10/04 15:49:24;;;;;;;;;6.50;6.50;;;;;;;;5247885;28;8806;-75
2022/10/04 15:52:20;;;;;;;;;9.00;9.00;;;;;;;;5247754;28;8802;-75
2022/10/04 15:55:19;;;;;;;;;6.50;6.50;;;;;;;;5269721;28;8888;-76
2022/10/04 15:57:50;;;;;;;;;8.50;8.50;;;;;;;;5247437;28;8826;-76
2022/10/04 16:00:37;;;;;;;;;9.33;9.33;;;;;;;;5272298;28;8831;-78
2022/10/04 16:03:25;;;;;;;;;40.40;36.20;;;;;;;;5250596;28;11864;-76
2022/10/04 16:06:19;;;;;;;;;16.75;16.75;;;;;;;;5257412;28;8870;-79
2022/10/04 16:09:22;;;;;;;;;6.25;6.25;;;;;;;;5256095;28;8785;-77
2022/10/04 16:11:54;;;;;;;;;7.00;7.00;;;;;;;;5253948;28;8772;-78
2022/10/04 16:14:27;;;;;;;;;6.75;6.75;;;;;;;;5253401;28;8765;-76
2022/10/04 16:17:35;;;;;;;;;6.00;6.00;;;;;;;;5256015;28;8781;-76
2022/10/04 16:20:28;;;;;;;;;5.00;5.00;;;;;;;;5252405;28;8913;-78
2022/10/04 16:23:31;;;;;;;;;3.00;3.00;;;;;;;;5235435;28;9711;-77
2022/10/04 16:26:08;;;;;;;;;4.00;4.00;;;;;;;;5215981;28;8824;-77
2022/10/04 16:28:43;;;;;;;;;5.00;5.00;;;;;;;;5249211;28;8885;-78